createdAt,value
2023-04-10T00:01:01.840Z,68.50
2023-04-10T00:06:05.001Z,69.13
2023-04-10T00:11:07.859Z,69.96
2023-04-10T00:16:11.716Z,70.24
2023-04-10T00:21:14.609Z,70.79
2023-04-10T00:26:18.000Z,71.52
2023-04-10T00:31:20.887Z,71.11
2023-04-10T00:36:24.024Z,71.24
2023-04-10T00:41:27.442Z,71.80
2023-04-10T00:46:31.807Z,71.70
2023-04-10T00:51:34.710Z,72.20
2023-04-10T00:56:38.018Z,72.50
2023-04-10T01:01:40.929Z,72.98
2023-04-10T01:07:04.728Z,73.00
2023-04-10T01:12:47.564Z,73.30
2023-04-10T01:18:04.346Z,73.21
2023-04-10T01:23:56.991Z,72.71
2023-04-10T01:29:01.339Z,72.70
2023-04-10T01:34:11.836Z,72.99
2023-04-10T01:39:19.264Z,73.03
2023-04-10T01:44:27.132Z,73.31
2023-04-10T01:49:31.628Z,73.35
2023-04-10T01:54:35.767Z,73.38
2023-04-10T01:59:40.133Z,72.95
2023-04-10T02:04:42.984Z,72.81
2023-04-10T02:10:02.954Z,72.80
2023-04-10T02:15:08.602Z,73.73
2023-04-10T02:20:12.793Z,73.77
2023-04-10T02:25:16.747Z,73.20
2023-04-10T02:30:19.734Z,73.98
2023-04-10T02:35:22.864Z,74.01
2023-04-10T02:40:25.822Z,74.56
2023-04-10T02:45:28.625Z,74.89
2023-04-10T02:50:32.440Z,75.41
2023-04-10T02:55:35.142Z,74.23
2023-04-10T03:00:38.454Z,73.62
2023-04-10T03:05:41.275Z,73.92
2023-04-10T03:10:45.708Z,74.44
2023-04-10T03:15:48.580Z,74.98
2023-04-10T03:20:51.432Z,75.45
2023-04-10T03:25:55.026Z,75.51
2023-04-10T03:30:57.901Z,75.52
2023-04-10T03:36:00.780Z,75.60
2023-04-10T03:41:03.719Z,75.27
2023-04-10T03:46:06.770Z,75.67
2023-04-10T03:51:09.689Z,75.64
2023-04-10T03:56:12.555Z,75.29
2023-04-10T04:01:15.473Z,74.68
2023-04-10T04:06:18.521Z,74.72
2023-04-10T04:11:21.342Z,74.02
2023-04-10T04:16:24.258Z,73.76
2023-04-10T04:21:27.698Z,74.21
2023-04-10T04:26:30.753Z,74.78
2023-04-10T04:31:33.714Z,75.25
2023-04-10T04:36:36.627Z,75.40
2023-04-10T04:41:39.414Z,75.60
2023-04-10T04:46:44.493Z,75.81
2023-04-10T04:51:47.594Z,75.86
2023-04-10T04:56:50.430Z,75.26
2023-04-10T05:01:53.331Z,74.95
2023-04-10T05:06:56.257Z,75.88
2023-04-10T05:11:59.116Z,75.95
2023-04-10T05:17:03.515Z,76.32
2023-04-10T05:22:06.731Z,76.84
2023-04-10T05:27:09.619Z,77.14
2023-04-10T05:32:12.541Z,76.93
2023-04-10T05:37:15.427Z,77.68
2023-04-10T05:42:18.278Z,77.71
2023-04-10T05:47:21.107Z,77.92
2023-04-10T05:52:23.924Z,78.32
2023-04-10T05:57:26.757Z,78.45
2023-04-10T06:02:29.796Z,78.59
2023-04-10T06:07:33.373Z,78.84
2023-04-10T06:12:36.281Z,78.19
2023-04-10T06:17:45.955Z,78.19
2023-04-10T06:22:48.814Z,77.63
2023-04-10T06:27:51.694Z,76.58
2023-04-10T06:32:54.610Z,76.19
2023-04-10T06:37:57.502Z,76.04
2023-04-10T06:43:01.427Z,76.15
2023-04-10T06:48:05.144Z,75.51
2023-04-10T06:53:08.076Z,75.59
2023-04-10T06:58:10.955Z,75.55
2023-04-10T07:03:13.899Z,75.14
2023-04-10T07:08:16.821Z,74.97
2023-04-10T07:13:19.669Z,75.20
2023-04-10T07:18:22.479Z,75.38
2023-04-10T07:23:25.552Z,75.58
2023-04-10T07:28:28.367Z,74.88
2023-04-10T07:33:31.493Z,74.46
2023-04-10T07:38:34.345Z,74.59
2023-04-10T07:43:37.274Z,74.20
2023-04-10T07:48:40.072Z,73.91
2023-04-10T07:53:43.484Z,73.36
2023-04-10T07:58:46.749Z,72.40
2023-04-10T08:03:49.788Z,71.23
2023-04-10T08:08:52.971Z,71.21
2023-04-10T08:14:02.432Z,70.94
2023-04-10T08:19:05.321Z,70.35
2023-04-10T08:24:08.148Z,69.78
2023-04-10T08:29:10.958Z,69.85
2023-04-10T08:34:13.831Z,68.50
2023-04-10T08:39:16.656Z,66.81
2023-04-10T08:44:19.482Z,65.11
2023-04-10T08:49:47.742Z,64.14
2023-04-10T08:54:56.251Z,63.74
2023-04-10T08:59:59.531Z,62.73
2023-04-10T09:05:05.895Z,61.80
2023-04-10T09:10:09.564Z,60.92
2023-04-10T09:15:12.671Z,60.24
2023-04-10T09:20:23.884Z,60.28
2023-04-10T09:25:36.533Z,59.93
2023-04-10T09:30:42.491Z,59.89
2023-04-10T09:35:45.370Z,60.01
2023-04-10T09:40:49.100Z,58.15
2023-04-10T09:45:57.526Z,57.63
2023-04-10T09:51:00.922Z,58.23
2023-04-10T09:56:05.320Z,57.31
2023-04-10T10:01:08.557Z,56.16
2023-04-10T10:06:11.815Z,55.61
2023-04-10T10:11:19.352Z,56.78
2023-04-10T10:16:34.707Z,55.99
2023-04-10T10:21:39.015Z,55.84
2023-04-10T10:26:46.105Z,55.32
2023-04-10T10:31:49.497Z,54.02
2023-04-10T10:36:52.283Z,54.27
2023-04-10T10:42:09.620Z,53.94
2023-04-10T10:47:27.650Z,54.76
2023-04-10T10:52:52.928Z,54.19
2023-04-10T10:57:59.151Z,53.71
2023-04-10T11:03:07.871Z,53.56
2023-04-10T11:08:10.902Z,53.77
2023-04-10T11:13:18.540Z,53.39
2023-04-10T11:18:56.045Z,52.64
2023-04-10T11:24:05.945Z,51.98
2023-04-10T11:29:28.859Z,51.20
2023-04-10T11:34:33.225Z,51.74
2023-04-10T11:39:36.078Z,52.15
2023-04-10T11:44:39.729Z,52.02
2023-04-10T11:49:42.598Z,52.42
2023-04-10T11:54:49.170Z,53.64
2023-04-10T11:59:52.088Z,53.66
2023-04-10T12:04:59.014Z,52.96
2023-04-10T12:10:02.140Z,53.62
2023-04-10T12:15:29.154Z,53.22
2023-04-10T12:20:32.230Z,51.50
2023-04-10T12:25:35.502Z,50.92
2023-04-10T12:30:38.310Z,53.98
2023-04-10T12:35:44.421Z,53.29
2023-04-10T12:41:02.981Z,53.62
2023-04-10T12:46:07.778Z,53.70
2023-04-10T12:51:10.655Z,53.69
2023-04-10T12:56:14.786Z,56.68
2023-04-10T13:01:17.664Z,55.53
2023-04-10T13:06:20.645Z,55.01
2023-04-10T13:11:23.550Z,53.16
2023-04-10T13:16:26.379Z,52.88
2023-04-10T13:21:29.931Z,52.59
2023-04-10T13:26:32.790Z,51.85
2023-04-10T13:31:35.848Z,50.91
2023-04-10T13:36:38.864Z,51.47
2023-04-10T13:41:41.796Z,54.55
2023-04-10T13:46:44.704Z,54.29
2023-04-10T13:51:47.924Z,54.51
2023-04-10T13:56:50.774Z,52.98
2023-04-10T14:01:53.697Z,53.25
2023-04-10T14:07:00.028Z,55.93
2023-04-10T14:12:03.276Z,52.45
2023-04-10T14:17:06.137Z,52.29
2023-04-10T14:22:09.035Z,54.50
2023-04-10T14:27:13.293Z,57.12
2023-04-10T14:32:16.374Z,58.42
2023-04-10T14:37:19.270Z,58.64
2023-04-10T14:42:23.713Z,58.64
2023-04-10T14:47:26.635Z,58.87
2023-04-10T14:52:29.488Z,59.44
2023-04-10T14:57:32.385Z,60.04
2023-04-10T15:02:35.469Z,61.72
2023-04-10T15:07:38.498Z,64.33
2023-04-10T15:12:42.497Z,65.58
2023-04-10T15:17:45.346Z,66.50
2023-04-10T15:22:48.290Z,67.78
2023-04-10T15:27:51.186Z,68.16
2023-04-10T15:32:54.067Z,68.23
2023-04-10T15:37:57.298Z,68.38
2023-04-10T15:43:02.960Z,68.49
2023-04-10T15:48:06.084Z,68.54
2023-04-10T15:53:09.511Z,69.56
2023-04-10T15:58:12.351Z,69.43
2023-04-10T16:03:21.332Z,68.48
2023-04-10T16:08:26.245Z,68.64
2023-04-10T16:13:29.179Z,69.12
2023-04-10T16:18:31.972Z,69.43
2023-04-10T16:23:34.772Z,68.95
2023-04-10T16:28:37.568Z,68.52
2023-04-10T16:33:41.694Z,68.95
2023-04-10T16:38:45.269Z,69.02
2023-04-10T16:43:48.243Z,69.51
2023-04-10T16:48:52.077Z,69.94
2023-04-10T16:53:54.832Z,70.62
2023-04-10T16:58:57.886Z,71.65
2023-04-10T17:04:00.907Z,71.87
2023-04-10T17:09:03.933Z,71.43
2023-04-10T17:14:07.520Z,71.26
2023-04-10T17:19:10.354Z,71.21
2023-04-10T17:24:13.827Z,71.20
2023-04-10T17:29:16.593Z,71.02
2023-04-10T17:34:19.374Z,71.24
2023-04-10T17:39:23.919Z,71.25
2023-04-10T17:44:26.706Z,72.17
2023-04-10T17:49:30.520Z,72.30
2023-04-10T17:54:34.157Z,72.26
2023-04-10T17:59:36.996Z,72.24
2023-04-10T18:04:39.799Z,72.36
2023-04-10T18:09:42.650Z,72.67
2023-04-10T18:14:45.632Z,72.53
2023-04-10T18:19:53.232Z,72.06
2023-04-10T18:24:56.097Z,72.25
2023-04-10T18:29:58.931Z,71.97
2023-04-10T18:35:03.655Z,71.58
2023-04-10T18:40:16.319Z,71.37
2023-04-10T18:45:20.552Z,71.17
2023-04-10T18:50:23.451Z,70.87
2023-04-10T18:55:26.248Z,70.95
2023-04-10T19:00:29.135Z,71.14
2023-04-10T19:05:32.687Z,71.18
2023-04-10T19:10:37.349Z,70.97
2023-04-10T19:15:46.273Z,70.80
2023-04-10T19:20:53.015Z,70.84
2023-04-10T19:25:58.598Z,71.36
2023-04-10T19:31:01.885Z,70.42
2023-04-10T19:36:08.042Z,69.92
2023-04-10T19:41:15.756Z,70.53
2023-04-10T19:46:21.957Z,70.44
2023-04-10T19:51:24.948Z,70.41
2023-04-10T19:56:30.630Z,70.65
2023-04-10T20:01:34.234Z,70.34
2023-04-10T20:06:37.059Z,70.84
2023-04-10T20:11:39.922Z,70.36
2023-04-10T20:16:42.785Z,70.36
2023-04-10T20:21:45.723Z,69.64
2023-04-10T20:26:48.716Z,70.29
2023-04-10T20:31:51.559Z,70.67
2023-04-10T20:36:54.591Z,70.66
2023-04-10T20:41:57.449Z,71.03
2023-04-10T20:47:02.891Z,71.44
2023-04-10T20:52:06.861Z,71.83
2023-04-10T20:57:09.801Z,72.44
2023-04-10T21:02:13.310Z,72.71
2023-04-10T21:07:16.074Z,72.24
2023-04-10T21:12:18.875Z,71.67
2023-04-10T21:17:22.265Z,71.82
2023-04-10T21:22:27.003Z,71.51
2023-04-10T21:27:30.952Z,71.65
2023-04-10T21:32:33.825Z,71.00
2023-04-10T21:37:37.166Z,71.17
2023-04-10T21:42:39.999Z,70.79
2023-04-10T21:47:42.894Z,70.75
2023-04-10T21:52:45.824Z,70.39
2023-04-10T21:57:48.661Z,70.59
2023-04-10T22:02:52.029Z,70.76
2023-04-10T22:07:55.251Z,70.60
2023-04-10T22:12:58.071Z,70.90
2023-04-10T22:18:00.985Z,70.94
2023-04-10T22:23:06.867Z,70.90
2023-04-10T22:28:09.683Z,71.42
2023-04-10T22:33:12.513Z,71.06
2023-04-10T22:38:15.596Z,70.87
2023-04-10T22:43:18.407Z,70.63
2023-04-10T22:48:21.414Z,70.31
2023-04-10T22:53:24.262Z,70.47
2023-04-10T22:58:27.124Z,70.27
2023-04-10T23:03:29.957Z,69.92
2023-04-10T23:08:32.826Z,69.71
2023-04-10T23:13:36.070Z,70.14
2023-04-10T23:18:39.248Z,70.72
2023-04-10T23:23:42.137Z,70.99
2023-04-10T23:28:44.973Z,70.65
2023-04-10T23:33:47.801Z,69.65
2023-04-10T23:38:50.733Z,69.88
2023-04-10T23:43:54.020Z,70.45
2023-04-10T23:48:56.868Z,70.85
2023-04-10T23:53:59.698Z,70.82
2023-04-10T23:59:02.527Z,71.01
